createdAt,value
2018-02-24T00:00:29.090Z,6.47
2018-02-24T00:01:31.572Z,3.53
2018-02-24T00:02:34.040Z,4.33
2018-02-24T00:03:36.516Z,5.67
2018-02-24T00:04:39.013Z,4.13
2018-02-24T00:05:41.479Z,4.13
2018-02-24T00:06:43.964Z,3.83
2018-02-24T00:07:46.436Z,5.40
2018-02-24T00:08:48.899Z,3.40
2018-02-24T00:09:51.386Z,4.37
2018-02-24T00:10:54.157Z,6.27
2018-02-24T00:11:56.634Z,10.33
2018-02-24T00:12:59.183Z,9.97
2018-02-24T00:14:01.647Z,4.57
2018-02-24T00:15:04.151Z,4.67
2018-02-24T00:16:06.616Z,6.43
2018-02-24T00:17:09.102Z,4.60
2018-02-24T00:18:11.571Z,4.90
2018-02-24T00:19:14.051Z,3.03
2018-02-24T00:20:16.512Z,4.07
2018-02-24T00:21:18.999Z,4.40
2018-02-24T00:22:21.482Z,6.13
2018-02-24T00:23:23.966Z,3.73
2018-02-24T00:24:26.431Z,5.50
2018-02-24T00:25:28.929Z,4.57
2018-02-24T00:26:31.395Z,3.60
2018-02-24T00:27:33.866Z,5.70
2018-02-24T00:28:36.337Z,4.50
2018-02-24T00:29:38.800Z,4.60
2018-02-24T00:30:41.267Z,4.10
2018-02-24T00:31:43.746Z,4.10
2018-02-24T00:32:46.222Z,11.40
2018-02-24T00:33:48.699Z,4.33
2018-02-24T00:34:51.174Z,5.40
2018-02-24T00:35:53.638Z,5.53
2018-02-24T00:36:56.104Z,6.60
2018-02-24T00:37:58.613Z,4.93
2018-02-24T00:39:01.126Z,5.80
2018-02-24T00:40:03.595Z,3.77
2018-02-24T00:41:06.058Z,3.47
2018-02-24T00:42:08.539Z,5.10
2018-02-24T00:43:11.007Z,2.87
2018-02-24T00:44:13.500Z,15.27
2018-02-24T00:45:15.978Z,17.03
2018-02-24T00:46:18.466Z,1.83
2018-02-24T00:47:20.945Z,6.10
2018-02-24T00:48:23.424Z,5.50
2018-02-24T00:49:25.906Z,4.57
2018-02-24T00:50:28.375Z,3.87
2018-02-24T00:51:30.856Z,7.33
2018-02-24T00:52:33.348Z,5.13
2018-02-24T00:53:35.816Z,3.30
2018-02-24T00:54:38.315Z,3.60
2018-02-24T00:55:40.814Z,7.87
2018-02-24T00:56:43.282Z,3.60
2018-02-24T00:57:45.766Z,15.10
2018-02-24T00:58:48.239Z,7.10
2018-02-24T00:59:50.703Z,4.90
2018-02-24T01:00:53.167Z,5.43
2018-02-24T01:01:55.631Z,3.23
2018-02-24T01:02:58.105Z,5.30
2018-02-24T01:04:00.589Z,3.70
2018-02-24T01:05:03.085Z,4.90
2018-02-24T01:06:05.561Z,7.63
2018-02-24T01:07:08.042Z,4.23
2018-02-24T01:08:10.522Z,3.07
2018-02-24T01:09:13.004Z,6.47
2018-02-24T01:10:15.469Z,4.50
2018-02-24T01:11:17.949Z,4.33
2018-02-24T01:12:20.434Z,8.20
2018-02-24T01:13:22.918Z,2.20
2018-02-24T01:14:25.402Z,4.00
2018-02-24T01:15:27.871Z,4.70
2018-02-24T01:16:30.349Z,4.30
2018-02-24T01:17:32.835Z,4.97
2018-02-24T01:18:35.298Z,2.37
2018-02-24T01:19:37.781Z,2.87
2018-02-24T01:20:40.265Z,6.43
2018-02-24T01:21:42.748Z,15.60
2018-02-24T01:22:45.221Z,3.97
2018-02-24T01:23:47.688Z,4.93
2018-02-24T01:24:50.177Z,4.27
2018-02-24T01:25:52.652Z,4.47
2018-02-24T01:26:55.134Z,4.27
2018-02-24T01:27:57.609Z,6.23
2018-02-24T01:29:00.072Z,4.40
2018-02-24T01:30:02.537Z,3.53
2018-02-24T01:31:05.007Z,6.40
2018-02-24T01:32:07.477Z,2.70
2018-02-24T01:33:10.003Z,5.93
2018-02-24T01:34:12.462Z,7.53
2018-02-24T01:35:14.953Z,3.07
2018-02-24T01:36:17.445Z,3.33
2018-02-24T01:37:19.921Z,2.00
2018-02-24T01:38:22.387Z,2.17
2018-02-24T01:39:24.846Z,3.03
2018-02-24T01:40:27.354Z,3.10
2018-02-24T01:41:29.849Z,9.83
2018-02-24T01:42:32.341Z,6.37
2018-02-24T01:43:34.825Z,3.70
2018-02-24T01:44:37.295Z,2.37
2018-02-24T01:45:39.770Z,2.00
2018-02-24T01:46:42.231Z,3.47
2018-02-24T01:47:44.723Z,4.30
2018-02-24T01:48:47.207Z,5.00
2018-02-24T01:49:49.689Z,2.10
2018-02-24T01:50:52.169Z,6.37
2018-02-24T01:51:54.632Z,5.50
2018-02-24T01:52:57.118Z,2.70
2018-02-24T01:53:59.618Z,3.70
2018-02-24T01:55:02.093Z,4.57
2018-02-24T01:56:04.561Z,3.47
2018-02-24T01:57:07.041Z,2.80
2018-02-24T01:58:09.879Z,2.17
2018-02-24T01:59:12.357Z,6.30
2018-02-24T02:00:14.837Z,3.20
2018-02-24T02:01:17.321Z,3.43
2018-02-24T02:02:19.809Z,10.77
2018-02-24T02:03:22.289Z,1.80
2018-02-24T02:04:24.767Z,2.60
2018-02-24T02:05:27.252Z,3.20
2018-02-24T02:06:29.728Z,6.37
2018-02-24T02:07:32.214Z,3.00
2018-02-24T02:08:34.674Z,2.83
2018-02-24T02:09:37.136Z,2.63
2018-02-24T02:10:39.623Z,3.43
2018-02-24T02:11:42.101Z,5.10
2018-02-24T02:12:44.606Z,4.87
2018-02-24T02:13:47.093Z,3.17
2018-02-24T02:14:49.568Z,3.70
2018-02-24T02:15:52.045Z,3.00
2018-02-24T02:16:54.525Z,5.80
2018-02-24T02:17:56.995Z,6.43
2018-02-24T02:18:59.485Z,2.78
2018-02-24T02:20:01.969Z,3.00
2018-02-24T02:21:04.448Z,5.33
2018-02-24T02:22:06.932Z,3.47
2018-02-24T02:23:09.399Z,5.23
2018-02-24T02:24:12.010Z,2.97
2018-02-24T02:25:14.480Z,3.27
2018-02-24T02:26:16.947Z,5.50
2018-02-24T02:27:19.423Z,4.25
2018-02-24T02:28:21.888Z,8.43
2018-02-24T02:29:24.379Z,2.85
2018-02-24T02:30:26.866Z,5.20
2018-02-24T02:31:29.335Z,6.77
2018-02-24T02:32:31.815Z,3.00
2018-02-24T02:33:34.284Z,4.10
2018-02-24T02:34:36.765Z,2.80
2018-02-24T02:35:39.266Z,2.87
2018-02-24T02:36:41.753Z,2.77
2018-02-24T02:37:44.263Z,2.35
2018-02-24T02:38:46.740Z,5.23
2018-02-24T02:39:49.255Z,2.22
2018-02-24T02:40:51.747Z,6.45
2018-02-24T02:41:54.227Z,4.00
2018-02-24T02:42:56.699Z,5.22
2018-02-24T02:43:59.230Z,2.45
2018-02-24T02:45:01.701Z,3.83
2018-02-24T02:46:04.188Z,2.70
2018-02-24T02:47:06.665Z,3.27
2018-02-24T02:48:09.164Z,3.93
2018-02-24T02:49:11.647Z,5.83
2018-02-24T02:50:14.125Z,1.63
2018-02-24T02:51:16.610Z,2.77
2018-02-24T02:52:19.085Z,2.30
2018-02-24T02:53:21.551Z,9.33
2018-02-24T02:54:24.034Z,3.77
2018-02-24T02:55:26.514Z,1.57
2018-02-24T02:56:28.983Z,3.33
2018-02-24T02:57:31.452Z,2.80
2018-02-24T02:58:33.960Z,3.43
2018-02-24T02:59:36.441Z,2.80
2018-02-24T03:00:38.908Z,3.33
2018-02-24T03:01:41.390Z,3.20
2018-02-24T03:02:43.874Z,1.60
2018-02-24T03:03:46.348Z,3.37
2018-02-24T03:04:48.874Z,4.60
2018-02-24T03:05:51.352Z,9.00
2018-02-24T03:06:53.834Z,3.35
2018-02-24T03:07:56.317Z,5.33
2018-02-24T03:08:58.811Z,7.63
2018-02-24T03:10:01.297Z,6.27
2018-02-24T03:11:03.766Z,3.60
2018-02-24T03:12:06.262Z,1.70
2018-02-24T03:13:08.741Z,4.07
2018-02-24T03:14:11.253Z,4.20
2018-02-24T03:15:13.727Z,6.80
2018-02-24T03:16:16.205Z,2.87
2018-02-24T03:17:18.681Z,2.87
2018-02-24T03:18:21.161Z,2.60
2018-02-24T03:19:23.652Z,3.65
2018-02-24T03:20:26.126Z,5.28
2018-02-24T03:21:28.602Z,3.30
2018-02-24T03:22:31.083Z,6.80
2018-02-24T03:23:33.566Z,3.20
2018-02-24T03:24:36.035Z,4.97
2018-02-24T03:25:38.625Z,2.60
2018-02-24T03:26:41.107Z,4.80
2018-02-24T03:27:43.593Z,2.00
2018-02-24T03:28:46.081Z,2.20
2018-02-24T03:29:48.559Z,1.73
2018-02-24T03:30:51.028Z,1.52
2018-02-24T03:31:53.522Z,5.10
2018-02-24T03:32:55.999Z,3.65
2018-02-24T03:33:58.484Z,3.30
2018-02-24T03:35:00.974Z,3.00
2018-02-24T03:36:03.447Z,3.05
2018-02-24T03:37:05.930Z,3.20
2018-02-24T03:38:08.406Z,2.05
2018-02-24T03:39:10.897Z,9.13
2018-02-24T03:40:13.393Z,2.53
2018-02-24T03:41:15.877Z,2.60
2018-02-24T03:42:18.353Z,2.20
2018-02-24T03:43:20.844Z,3.10
2018-02-24T03:44:23.315Z,2.15
2018-02-24T03:45:25.801Z,3.35
2018-02-24T03:46:29.258Z,5.53
2018-02-24T03:47:31.745Z,3.55
2018-02-24T03:48:34.225Z,6.23
2018-02-24T03:49:36.699Z,3.85
2018-02-24T03:50:39.190Z,2.70
2018-02-24T03:51:41.690Z,1.98
2018-02-24T03:52:44.181Z,3.08
2018-02-24T03:53:46.659Z,1.98
2018-02-24T03:54:49.143Z,2.15
2018-02-24T03:55:51.627Z,5.47
2018-02-24T03:56:54.131Z,4.07
2018-02-24T03:57:56.625Z,3.50
2018-02-24T03:58:59.103Z,10.68
2018-02-24T04:00:01.586Z,2.07
2018-02-24T04:01:04.069Z,4.55
2018-02-24T04:02:06.597Z,6.95
2018-02-24T04:03:09.089Z,2.13
2018-02-24T04:04:11.561Z,3.37
2018-02-24T04:05:14.058Z,2.42
2018-02-24T04:06:16.535Z,1.90
2018-02-24T04:07:19.035Z,1.52
2018-02-24T04:08:21.516Z,1.92
2018-02-24T04:09:24.009Z,4.35
2018-02-24T04:10:26.483Z,2.37
2018-02-24T04:11:28.973Z,4.95
2018-02-24T04:12:31.463Z,3.60
2018-02-24T04:13:33.953Z,3.05
2018-02-24T04:14:36.422Z,1.70
2018-02-24T04:15:38.913Z,2.00
2018-02-24T04:16:41.401Z,3.70
2018-02-24T04:17:43.899Z,4.22
2018-02-24T04:18:46.380Z,3.83
2018-02-24T04:19:48.871Z,3.53
2018-02-24T04:20:51.357Z,2.55
2018-02-24T04:21:53.838Z,2.15
2018-02-24T04:22:56.320Z,4.80
2018-02-24T04:23:58.809Z,2.30
2018-02-24T04:25:01.288Z,2.03
2018-02-24T04:26:03.781Z,6.62
2018-02-24T04:27:06.251Z,5.12
2018-02-24T04:28:08.751Z,4.85
2018-02-24T04:29:11.241Z,3.20
2018-02-24T04:30:13.733Z,2.90
2018-02-24T04:31:16.225Z,2.67
2018-02-24T04:32:18.705Z,9.03
2018-02-24T04:33:21.204Z,14.60
2018-02-24T04:34:23.692Z,1.73
2018-02-24T04:35:26.163Z,3.60
2018-02-24T04:36:28.662Z,5.00
2018-02-24T04:37:31.139Z,4.53
2018-02-24T04:38:33.632Z,4.62
2018-02-24T04:39:36.111Z,2.90
2018-02-24T04:40:38.604Z,3.80
2018-02-24T04:41:41.102Z,7.62
2018-02-24T04:42:43.596Z,2.50
2018-02-24T04:43:46.098Z,7.32
2018-02-24T04:44:48.622Z,3.97
2018-02-24T04:45:51.112Z,1.55
2018-02-24T04:46:53.596Z,3.30
2018-02-24T04:47:56.071Z,4.20
2018-02-24T04:48:58.563Z,8.35
2018-02-24T04:50:01.043Z,1.77
2018-02-24T04:51:03.535Z,14.85
2018-02-24T04:52:06.034Z,2.90
2018-02-24T04:53:08.507Z,6.72
2018-02-24T04:54:10.994Z,2.17
2018-02-24T04:55:13.485Z,2.92
2018-02-24T04:56:15.975Z,5.68
2018-02-24T04:57:18.466Z,2.00
2018-02-24T04:58:20.958Z,3.58
2018-02-24T04:59:23.451Z,8.27
2018-02-24T05:00:25.915Z,2.40
2018-02-24T05:01:28.379Z,4.37
2018-02-24T05:02:30.873Z,2.85
2018-02-24T05:03:33.347Z,2.40
2018-02-24T05:04:35.843Z,2.10
2018-02-24T05:05:38.326Z,2.60
2018-02-24T05:06:40.802Z,1.35
2018-02-24T05:07:43.271Z,2.10
2018-02-24T05:08:45.765Z,4.37
2018-02-24T05:09:48.262Z,2.47
2018-02-24T05:10:50.745Z,3.47
2018-02-24T05:11:53.234Z,4.60
2018-02-24T05:12:55.729Z,2.75
2018-02-24T05:13:58.217Z,1.95
2018-02-24T05:15:00.715Z,5.90
2018-02-24T05:16:03.193Z,6.00
2018-02-24T05:17:05.688Z,5.10
2018-02-24T05:18:08.164Z,4.90
2018-02-24T05:19:10.653Z,2.87
2018-02-24T05:20:13.156Z,9.45
2018-02-24T05:21:15.635Z,15.15
2018-02-24T05:22:18.111Z,5.60
2018-02-24T05:23:20.601Z,9.90
2018-02-24T05:24:23.081Z,10.07
2018-02-24T05:25:25.591Z,3.03
2018-02-24T05:26:28.085Z,11.07
2018-02-24T05:27:30.569Z,7.20
2018-02-24T05:28:33.051Z,5.05
2018-02-24T05:29:35.527Z,12.37
2018-02-24T05:30:38.019Z,5.62
2018-02-24T05:31:40.542Z,9.23
2018-02-24T05:32:43.011Z,8.18
2018-02-24T05:33:45.497Z,4.55
2018-02-24T05:34:47.979Z,14.48
2018-02-24T05:35:50.481Z,13.73
2018-02-24T05:36:52.948Z,10.37
2018-02-24T05:37:55.424Z,18.37
2018-02-24T05:38:57.909Z,8.73
2018-02-24T05:40:00.405Z,5.05
2018-02-24T05:41:02.914Z,6.40
2018-02-24T05:42:05.387Z,4.93
2018-02-24T05:43:07.859Z,8.45
2018-02-24T05:44:10.345Z,11.40
2018-02-24T05:45:12.835Z,2.45
2018-02-24T05:46:15.349Z,10.05
2018-02-24T05:47:17.820Z,5.32
2018-02-24T05:48:20.308Z,4.03
2018-02-24T05:49:22.808Z,10.38
2018-02-24T05:50:25.298Z,10.55
2018-02-24T05:51:27.820Z,14.15
2018-02-24T05:52:30.320Z,4.72
2018-02-24T05:53:32.817Z,13.50
2018-02-24T05:54:35.339Z,5.00
2018-02-24T05:55:37.814Z,4.12
2018-02-24T05:56:40.313Z,12.13
2018-02-24T05:57:42.798Z,3.33
2018-02-24T05:58:45.297Z,18.33
2018-02-24T05:59:47.783Z,8.73
2018-02-24T06:00:50.284Z,7.75
2018-02-24T06:01:52.793Z,6.53
2018-02-24T06:02:55.289Z,4.35
2018-02-24T06:03:57.777Z,10.18
2018-02-24T06:05:00.270Z,7.82
2018-02-24T06:06:02.759Z,6.15
2018-02-24T06:07:05.255Z,8.27
2018-02-24T06:08:07.764Z,5.35
2018-02-24T06:09:10.249Z,3.72
2018-02-24T06:10:12.761Z,9.88
2018-02-24T06:11:15.245Z,6.37
2018-02-24T06:12:17.764Z,6.22
2018-02-24T06:13:20.239Z,3.35
2018-02-24T06:14:22.711Z,8.35
2018-02-24T06:15:25.184Z,9.70
2018-02-24T06:16:27.673Z,4.93
2018-02-24T06:17:30.188Z,9.75
2018-02-24T06:18:32.668Z,4.45
2018-02-24T06:19:35.152Z,11.35
2018-02-24T06:20:37.623Z,7.32
2018-02-24T06:21:40.103Z,10.85
2018-02-24T06:22:42.613Z,7.15
2018-02-24T06:23:45.092Z,5.65
2018-02-24T06:24:47.587Z,6.95
2018-02-24T06:25:50.072Z,8.18
2018-02-24T06:26:52.550Z,7.18
2018-02-24T06:27:55.057Z,6.87
2018-02-24T06:28:57.541Z,1.98
2018-02-24T06:30:00.040Z,8.73
2018-02-24T06:31:02.537Z,25.08
2018-02-24T06:32:05.032Z,6.07
2018-02-24T06:33:07.535Z,4.37
2018-02-24T06:34:10.020Z,5.30
2018-02-24T06:35:12.539Z,6.45
2018-02-24T06:36:15.034Z,6.07
2018-02-24T06:37:17.533Z,5.50
2018-02-24T06:38:20.024Z,5.07
2018-02-24T06:39:22.503Z,2.72
2018-02-24T06:40:25.009Z,4.70
2018-02-24T06:41:27.497Z,8.63
2018-02-24T06:42:29.987Z,10.15
2018-02-24T06:43:32.482Z,5.20
2018-02-24T06:44:34.972Z,5.72
2018-02-24T06:45:37.442Z,2.78
2018-02-24T06:46:39.915Z,3.43
2018-02-24T06:47:42.402Z,5.50
2018-02-24T06:48:44.922Z,9.25
2018-02-24T06:49:47.438Z,22.50
2018-02-24T06:50:49.915Z,4.78
2018-02-24T06:51:52.405Z,5.40
2018-02-24T06:52:54.869Z,8.90
2018-02-24T06:53:57.360Z,9.85
2018-02-24T06:54:59.853Z,7.32
2018-02-24T06:56:02.333Z,3.40
2018-02-24T06:57:04.824Z,2.20
2018-02-24T06:58:07.321Z,14.40
2018-02-24T06:59:09.840Z,10.25
2018-02-24T07:00:12.320Z,4.80
2018-02-24T07:01:14.818Z,5.60
2018-02-24T07:02:17.291Z,6.00
2018-02-24T07:03:19.782Z,2.90
2018-02-24T07:04:22.298Z,11.25
2018-02-24T07:05:24.818Z,2.47
2018-02-24T07:06:27.282Z,5.73
2018-02-24T07:07:29.755Z,2.80
2018-02-24T07:08:32.955Z,4.40
2018-02-24T07:09:35.461Z,6.53
2018-02-24T07:10:37.937Z,6.13
2018-02-24T07:11:40.411Z,9.60
2018-02-24T07:12:42.897Z,4.47
2018-02-24T07:13:45.366Z,4.40
2018-02-24T07:14:47.843Z,5.17
2018-02-24T07:15:50.323Z,3.45
2018-02-24T07:16:52.799Z,5.47
2018-02-24T07:17:55.287Z,3.00
2018-02-24T07:18:57.782Z,4.12
2018-02-24T07:20:00.263Z,4.03
2018-02-24T07:21:02.745Z,9.73
2018-02-24T07:22:05.225Z,5.33
2018-02-24T07:23:07.687Z,3.37
2018-02-24T07:24:10.573Z,7.37
2018-02-24T07:25:13.054Z,5.60
2018-02-24T07:26:15.534Z,3.33
2018-02-24T07:27:18.001Z,2.00
2018-02-24T07:28:20.471Z,5.60
2018-02-24T07:29:22.974Z,2.80
2018-02-24T07:30:25.474Z,1.63
2018-02-24T07:31:27.955Z,2.67
2018-02-24T07:32:30.419Z,2.77
2018-02-24T07:33:32.890Z,2.95
2018-02-24T07:34:35.355Z,3.37
2018-02-24T07:35:37.860Z,9.10
2018-02-24T07:36:40.351Z,7.12
2018-02-24T07:37:42.833Z,2.95
2018-02-24T07:38:45.313Z,7.63
2018-02-24T07:39:47.783Z,4.83
2018-02-24T07:40:50.277Z,3.17
2018-02-24T07:41:52.757Z,4.87
2018-02-24T07:42:55.241Z,2.90
2018-02-24T07:43:57.793Z,2.60
2018-02-24T07:45:00.292Z,2.60
2018-02-24T07:46:02.915Z,3.67
2018-02-24T07:47:05.412Z,1.77
2018-02-24T07:48:07.896Z,4.85
2018-02-24T07:49:10.381Z,2.60
2018-02-24T07:50:12.843Z,2.33
2018-02-24T07:51:15.334Z,6.47
2018-02-24T07:52:17.807Z,7.87
2018-02-24T07:53:20.275Z,2.60
2018-02-24T07:54:22.763Z,5.20
2018-02-24T07:55:25.242Z,4.50
2018-02-24T07:56:27.750Z,4.55
2018-02-24T07:57:30.215Z,2.00
2018-02-24T07:58:32.696Z,4.47
2018-02-24T07:59:35.172Z,4.18
2018-02-24T08:00:37.635Z,3.17
2018-02-24T08:01:40.149Z,11.50
2018-02-24T08:02:42.643Z,4.45
2018-02-24T08:03:45.115Z,7.40
2018-02-24T08:04:47.617Z,7.77
2018-02-24T08:05:50.101Z,6.80
2018-02-24T08:06:52.579Z,7.10
2018-02-24T08:07:55.083Z,11.00
2018-02-24T08:08:57.575Z,7.32
2018-02-24T08:10:00.195Z,10.57
2018-02-24T08:11:02.671Z,7.70
2018-02-24T08:12:05.156Z,9.33
2018-02-24T08:13:07.655Z,6.90
2018-02-24T08:14:10.147Z,9.47
2018-02-24T08:15:12.631Z,12.90
2018-02-24T08:16:15.102Z,11.80
2018-02-24T08:17:17.643Z,10.57
2018-02-24T08:18:20.132Z,8.23
2018-02-24T08:19:22.614Z,9.85
2018-02-24T08:20:25.117Z,12.50
2018-02-24T08:21:27.596Z,13.25
2018-02-24T08:22:30.110Z,9.10
2018-02-24T08:23:32.613Z,13.48
2018-02-24T08:24:35.080Z,9.20
2018-02-24T08:25:37.584Z,10.43
2018-02-24T08:26:40.082Z,15.13
2018-02-24T08:27:42.605Z,14.10
2018-02-24T08:28:45.088Z,11.10
2018-02-24T08:29:47.586Z,12.43
2018-02-24T08:30:50.071Z,16.73
2018-02-24T08:31:52.548Z,13.77
2018-02-24T08:32:55.082Z,12.98
2018-02-24T08:33:57.551Z,11.43
2018-02-24T08:35:00.024Z,11.63
2018-02-24T08:36:02.626Z,11.43
2018-02-24T08:37:05.106Z,11.85
2018-02-24T08:38:07.606Z,11.52
2018-02-24T08:39:10.109Z,13.02
2018-02-24T08:40:12.604Z,11.70
2018-02-24T08:41:15.098Z,14.77
2018-02-24T08:42:17.594Z,13.93
2018-02-24T08:43:20.106Z,14.50
2018-02-24T08:44:22.589Z,14.75
2018-02-24T08:45:25.089Z,18.80
2018-02-24T08:46:27.574Z,11.87
2018-02-24T08:47:30.051Z,17.45
2018-02-24T08:48:32.552Z,15.25
2018-02-24T08:49:35.033Z,12.90
2018-02-24T08:50:37.525Z,14.67
2018-02-24T08:51:40.003Z,19.42
2018-02-24T08:52:42.526Z,11.38
2018-02-24T08:53:45.022Z,16.30
2018-02-24T08:54:47.501Z,11.17
2018-02-24T08:55:49.967Z,21.07
2018-02-24T08:56:52.467Z,11.50
2018-02-24T08:57:55.003Z,15.93
2018-02-24T08:58:57.550Z,11.15
2018-02-24T09:00:00.051Z,14.90
2018-02-24T09:01:02.556Z,9.87
2018-02-24T09:02:05.077Z,10.43
2018-02-24T09:03:07.557Z,11.67
2018-02-24T09:04:10.108Z,13.30
2018-02-24T09:05:12.583Z,10.87
2018-02-24T09:06:15.070Z,11.67
2018-02-24T09:07:17.571Z,11.43
2018-02-24T09:08:20.058Z,10.60
2018-02-24T09:09:22.601Z,12.77
2018-02-24T09:10:25.098Z,11.80
2018-02-24T09:11:27.563Z,9.90
2018-02-24T09:12:30.032Z,11.70
2018-02-24T09:13:32.516Z,12.00
2018-02-24T09:14:35.032Z,11.93
2018-02-24T09:15:37.520Z,13.30
2018-02-24T09:16:39.994Z,11.13
2018-02-24T09:17:42.493Z,11.33
2018-02-24T09:18:44.959Z,10.70
2018-02-24T09:19:47.466Z,10.60
2018-02-24T09:20:49.936Z,10.50
2018-02-24T09:21:52.415Z,11.43
2018-02-24T09:22:54.913Z,14.68
2018-02-24T09:23:57.383Z,9.90
2018-02-24T09:24:59.885Z,14.23
2018-02-24T09:26:02.343Z,9.83
2018-02-24T09:27:04.819Z,11.98
2018-02-24T09:28:07.300Z,11.73
2018-02-24T09:29:09.785Z,11.30
2018-02-24T09:30:12.278Z,11.67
2018-02-24T09:31:14.769Z,13.83
2018-02-24T09:32:17.252Z,11.40
2018-02-24T09:33:19.747Z,11.98
2018-02-24T09:34:22.237Z,12.73
2018-02-24T09:35:24.742Z,11.20
2018-02-24T09:36:27.229Z,11.00
2018-02-24T09:37:29.720Z,19.40
2018-02-24T09:38:32.213Z,13.18
2018-02-24T09:39:34.714Z,12.80
2018-02-24T09:40:37.213Z,13.10
2018-02-24T09:41:39.706Z,12.07
2018-02-24T09:42:42.194Z,11.53
2018-02-24T09:43:44.693Z,16.60
2018-02-24T09:44:47.159Z,13.33
2018-02-24T09:45:49.655Z,13.30
2018-02-24T09:46:52.139Z,13.07
2018-02-24T09:47:54.629Z,14.03
2018-02-24T09:48:57.118Z,15.90
2018-02-24T09:49:59.612Z,13.63
2018-02-24T09:51:02.122Z,12.40
2018-02-24T09:52:04.593Z,11.70
2018-02-24T09:53:07.085Z,12.37
2018-02-24T09:54:09.573Z,11.93
2018-02-24T09:55:12.073Z,14.87
2018-02-24T09:56:14.586Z,11.73
2018-02-24T09:57:17.054Z,13.60
2018-02-24T09:58:19.561Z,11.63
2018-02-24T09:59:22.060Z,13.80
2018-02-24T10:00:24.558Z,13.82
2018-02-24T10:01:27.112Z,10.95
2018-02-24T10:02:29.599Z,12.35
2018-02-24T10:03:32.082Z,12.37
2018-02-24T10:04:34.571Z,11.33
2018-02-24T10:05:37.070Z,11.70
2018-02-24T10:06:39.572Z,13.88
2018-02-24T10:07:42.074Z,11.55
2018-02-24T10:08:44.590Z,11.30
2018-02-24T10:09:47.081Z,11.18
2018-02-24T10:10:49.569Z,12.05
2018-02-24T10:11:52.071Z,13.45
2018-02-24T10:12:54.562Z,12.07
2018-02-24T10:13:57.077Z,13.93
2018-02-24T10:14:59.584Z,14.10
2018-02-24T10:16:02.082Z,12.60
2018-02-24T10:17:04.602Z,12.35
2018-02-24T10:18:07.075Z,16.07
2018-02-24T10:19:09.563Z,11.47
2018-02-24T10:20:12.066Z,13.15
2018-02-24T10:21:14.640Z,14.10
2018-02-24T10:22:17.303Z,11.63
2018-02-24T10:23:19.798Z,14.43
2018-02-24T10:24:22.320Z,13.70
2018-02-24T10:25:24.792Z,15.07
2018-02-24T10:26:27.258Z,12.50
2018-02-24T10:27:29.773Z,11.93
2018-02-24T10:28:32.252Z,17.17
2018-02-24T10:29:34.734Z,13.48
2018-02-24T10:30:37.230Z,12.70
2018-02-24T10:31:39.729Z,13.77
2018-02-24T10:32:42.231Z,16.85
2018-02-24T10:33:44.714Z,14.77
2018-02-24T10:34:47.213Z,12.00
2018-02-24T10:35:49.706Z,13.23
2018-02-24T10:36:52.190Z,15.23
2018-02-24T10:37:54.687Z,19.00
2018-02-24T10:38:57.163Z,12.30
2018-02-24T10:39:59.643Z,12.45
2018-02-24T10:41:02.143Z,10.98
2018-02-24T10:42:04.671Z,11.23
2018-02-24T10:43:07.158Z,10.68
2018-02-24T10:44:09.636Z,10.15
2018-02-24T10:45:12.129Z,10.73
2018-02-24T10:46:14.610Z,13.70
2018-02-24T10:47:17.190Z,10.80
2018-02-24T10:48:19.706Z,11.00
2018-02-24T10:49:22.183Z,11.35
2018-02-24T10:50:24.667Z,28.92
2018-02-24T10:51:27.161Z,11.35
2018-02-24T10:52:29.668Z,10.32
2018-02-24T10:53:32.172Z,14.95
2018-02-24T10:54:34.669Z,15.10
2018-02-24T10:55:37.164Z,10.18
2018-02-24T10:56:39.655Z,9.98
2018-02-24T10:57:42.145Z,9.68
2018-02-24T10:58:44.664Z,10.88
2018-02-24T10:59:47.157Z,8.10
2018-02-24T11:00:49.630Z,9.95
2018-02-24T11:01:52.130Z,12.90
2018-02-24T11:02:54.649Z,9.60
2018-02-24T11:03:57.148Z,9.27
2018-02-24T11:04:59.650Z,14.52
2018-02-24T11:06:02.127Z,11.95
2018-02-24T11:07:04.615Z,9.40
2018-02-24T11:08:07.095Z,9.82
2018-02-24T11:09:09.923Z,10.48
2018-02-24T11:10:12.412Z,9.98
2018-02-24T11:11:14.905Z,8.65
2018-02-24T11:12:17.397Z,11.38
2018-02-24T11:13:19.881Z,8.43
2018-02-24T11:14:22.397Z,11.00
2018-02-24T11:15:24.883Z,9.48
2018-02-24T11:16:27.355Z,9.25
2018-02-24T11:17:29.857Z,8.02
2018-02-24T11:18:32.973Z,9.25
2018-02-24T11:19:35.485Z,9.68
2018-02-24T11:20:37.960Z,7.40
2018-02-24T11:21:40.439Z,10.20
2018-02-24T11:22:42.937Z,8.85
2018-02-24T11:23:45.416Z,9.40
2018-02-24T11:24:47.931Z,11.65
2018-02-24T11:25:50.411Z,10.48
2018-02-24T11:26:52.952Z,10.30
2018-02-24T11:27:55.446Z,8.50
2018-02-24T11:28:57.915Z,9.50
2018-02-24T11:30:00.411Z,14.27
2018-02-24T11:31:02.919Z,12.10
2018-02-24T11:32:05.419Z,9.25
2018-02-24T11:33:07.925Z,11.98
2018-02-24T11:34:10.409Z,8.90
2018-02-24T11:35:12.998Z,7.53
2018-02-24T11:36:15.493Z,22.08
2018-02-24T11:37:17.989Z,8.48
2018-02-24T11:38:20.455Z,8.05
2018-02-24T11:39:28.656Z,9.35
2018-02-24T11:40:31.174Z,9.88
2018-02-24T11:41:33.662Z,10.05
2018-02-24T11:42:36.230Z,9.52
2018-02-24T11:43:38.736Z,9.38
2018-02-24T11:44:41.242Z,9.90
2018-02-24T11:45:43.778Z,8.80
2018-02-24T11:46:46.646Z,10.90
2018-02-24T11:47:49.161Z,8.23
2018-02-24T11:48:51.662Z,10.55
2018-02-24T11:49:54.147Z,9.60
2018-02-24T11:50:56.652Z,8.65
2018-02-24T11:51:59.128Z,9.15
2018-02-24T11:53:01.625Z,9.50
2018-02-24T11:54:04.103Z,9.73
2018-02-24T11:55:09.896Z,9.98
2018-02-24T11:56:12.396Z,9.65
2018-02-24T11:57:14.890Z,11.07
2018-02-24T11:58:17.368Z,9.50
2018-02-24T11:59:19.838Z,8.48
2018-02-24T12:00:22.326Z,9.05
2018-02-24T12:01:24.837Z,8.32
2018-02-24T12:02:27.334Z,14.80
2018-02-24T12:03:30.051Z,8.68
2018-02-24T12:04:32.593Z,8.35
2018-02-24T12:05:35.063Z,8.18
2018-02-24T12:06:37.562Z,8.35
2018-02-24T12:07:40.048Z,11.70
2018-02-24T12:08:42.832Z,8.75
2018-02-24T12:09:45.381Z,7.68
2018-02-24T12:10:47.952Z,6.80
2018-02-24T12:11:50.497Z,11.95
2018-02-24T12:12:52.975Z,10.70
2018-02-24T12:13:55.448Z,9.48
2018-02-24T12:14:58.309Z,8.27
2018-02-24T12:16:00.819Z,7.28
2018-02-24T12:17:03.327Z,6.95
2018-02-24T12:18:05.803Z,9.77
2018-02-24T12:19:09.353Z,8.52
2018-02-24T12:20:11.876Z,7.72
2018-02-24T12:21:14.375Z,7.50
2018-02-24T12:22:16.898Z,8.40
2018-02-24T12:23:19.404Z,8.18
2018-02-24T12:24:21.876Z,9.98
2018-02-24T12:25:24.603Z,7.28
2018-02-24T12:26:27.275Z,8.55
2018-02-24T12:27:29.834Z,11.05
2018-02-24T12:28:32.319Z,8.07
2018-02-24T12:29:34.815Z,11.82
2018-02-24T12:30:37.302Z,9.15
2018-02-24T12:31:39.855Z,8.35
2018-02-24T12:32:42.359Z,7.90
2018-02-24T12:33:45.247Z,7.28
2018-02-24T12:34:47.797Z,10.10
2018-02-24T12:35:50.304Z,13.80
2018-02-24T12:36:52.968Z,8.70
2018-02-24T12:37:55.473Z,8.95
2018-02-24T12:38:57.952Z,7.37
2018-02-24T12:40:00.436Z,6.37
2018-02-24T12:41:02.929Z,6.97
2018-02-24T12:42:05.421Z,8.75
2018-02-24T12:43:07.923Z,8.68
2018-02-24T12:44:10.490Z,8.07
2018-02-24T12:45:12.967Z,9.43
2018-02-24T12:46:15.470Z,9.55
2018-02-24T12:47:17.955Z,9.45
2018-02-24T12:48:20.455Z,7.43
2018-02-24T12:49:22.931Z,7.47
2018-02-24T12:50:25.407Z,7.07
2018-02-24T12:51:27.883Z,7.28
2018-02-24T12:52:30.369Z,6.55
2018-02-24T12:53:32.865Z,8.88
2018-02-24T12:54:35.339Z,8.65
2018-02-24T12:55:37.831Z,7.37
2018-02-24T12:56:40.307Z,6.25
2018-02-24T12:57:42.809Z,7.53
2018-02-24T12:58:45.330Z,7.90
2018-02-24T12:59:47.817Z,7.15
2018-02-24T13:00:50.304Z,7.45
2018-02-24T13:01:52.793Z,7.35
2018-02-24T13:02:55.301Z,7.68
2018-02-24T13:03:58.834Z,8.18
2018-02-24T13:05:01.339Z,8.10
2018-02-24T13:06:03.815Z,8.52
2018-02-24T13:07:06.311Z,8.25
2018-02-24T13:08:09.340Z,8.38
2018-02-24T13:09:11.831Z,7.93
2018-02-24T13:10:14.322Z,7.10
2018-02-24T13:11:17.382Z,8.40
2018-02-24T13:12:19.850Z,7.55
2018-02-24T13:13:22.337Z,7.57
2018-02-24T13:14:24.827Z,9.15
2018-02-24T13:15:27.325Z,5.90
2018-02-24T13:16:29.800Z,8.90
2018-02-24T13:17:32.272Z,6.40
2018-02-24T13:18:34.747Z,8.02
2018-02-24T13:19:37.240Z,8.38
2018-02-24T13:20:39.729Z,9.38
2018-02-24T13:21:42.222Z,6.32
2018-02-24T13:22:44.713Z,7.40
2018-02-24T13:23:47.187Z,9.60
2018-02-24T13:24:49.701Z,7.78
2018-02-24T13:25:52.175Z,8.25
2018-02-24T13:26:54.696Z,7.90
2018-02-24T13:27:57.192Z,7.85
2018-02-24T13:28:59.968Z,8.90
2018-02-24T13:30:02.533Z,8.20
2018-02-24T13:31:05.017Z,8.77
2018-02-24T13:32:07.861Z,8.80
2018-02-24T13:33:10.385Z,7.37
2018-02-24T13:34:13.071Z,7.93
2018-02-24T13:35:15.605Z,7.50
2018-02-24T13:36:18.124Z,7.80
2018-02-24T13:37:20.750Z,7.55
2018-02-24T13:38:23.292Z,9.35
2018-02-24T13:39:26.007Z,6.72
2018-02-24T13:40:28.574Z,8.27
2018-02-24T13:41:31.398Z,8.05
2018-02-24T13:42:33.961Z,12.25
2018-02-24T13:43:36.487Z,7.50
2018-02-24T13:44:39.588Z,9.95